sensor_id;sensor_type;location;lat;lon;timestamp;P1;durP1;ratioP1;P2;durP2;ratioP2
6955;SDS011;50345;51.136;16.886;2023-07-13T00:01:58;7.47;;;6.17;;
6955;SDS011;50345;51.136;16.886;2023-07-13T00:04:24;8.30;;;6.23;;
6955;SDS011;50345;51.136;16.886;2023-07-13T00:06:51;10.77;;;7.07;;
6955;SDS011;50345;51.136;16.886;2023-07-13T00:09:17;8.10;;;7.30;;
6955;SDS011;50345;51.136;16.886;2023-07-13T00:11:44;7.37;;;6.67;;
6955;SDS011;50345;51.136;16.886;2023-07-13T00:14:12;7.77;;;7.07;;
6955;SDS011;50345;51.136;16.886;2023-07-13T00:16:40;7.20;;;6.43;;
6955;SDS011;50345;51.136;16.886;2023-07-13T00:19:08;7.30;;;6.70;;
6955;SDS011;50345;51.136;16.886;2023-07-13T00:21:34;7.80;;;7.13;;
6955;SDS011;50345;51.136;16.886;2023-07-13T00:24:00;8.17;;;7.40;;
6955;SDS011;50345;51.136;16.886;2023-07-13T00:26:27;8.80;;;6.70;;
6955;SDS011;50345;51.136;16.886;2023-07-13T00:28:54;8.73;;;7.73;;
6955;SDS011;50345;51.136;16.886;2023-07-13T00:31:20;7.47;;;6.83;;
6955;SDS011;50345;51.136;16.886;2023-07-13T00:33:46;7.70;;;7.00;;
6955;SDS011;50345;51.136;16.886;2023-07-13T00:36:12;7.10;;;6.37;;
6955;SDS011;50345;51.136;16.886;2023-07-13T00:38:39;6.70;;;6.20;;
6955;SDS011;50345;51.136;16.886;2023-07-13T00:41:05;9.43;;;6.70;;
6955;SDS011;50345;51.136;16.886;2023-07-13T00:43:31;7.20;;;6.50;;
6955;SDS011;50345;51.136;16.886;2023-07-13T00:48:38;8.40;;;6.47;;
6955;SDS011;50345;51.136;16.886;2023-07-13T00:51:05;7.97;;;7.20;;
6955;SDS011;50345;51.136;16.886;2023-07-13T00:53:31;7.13;;;6.43;;
6955;SDS011;50345;51.136;16.886;2023-07-13T00:55:58;10.77;;;6.50;;
6955;SDS011;50345;51.136;16.886;2023-07-13T00:58:25;7.20;;;6.50;;
6955;SDS011;50345;51.136;16.886;2023-07-13T01:00:52;7.70;;;7.00;;
6955;SDS011;50345;51.136;16.886;2023-07-13T01:03:19;6.97;;;6.47;;
6955;SDS011;50345;51.136;16.886;2023-07-13T01:05:46;8.47;;;7.30;;
6955;SDS011;50345;51.136;16.886;2023-07-13T01:08:13;9.00;;;7.17;;
6955;SDS011;50345;51.136;16.886;2023-07-13T01:10:39;7.87;;;7.10;;
6955;SDS011;50345;51.136;16.886;2023-07-13T01:13:05;8.90;;;7.10;;
6955;SDS011;50345;51.136;16.886;2023-07-13T01:15:42;7.83;;;7.13;;
6955;SDS011;50345;51.136;16.886;2023-07-13T01:18:13;9.40;;;7.20;;
6955;SDS011;50345;51.136;16.886;2023-07-13T01:20:40;7.73;;;7.13;;
6955;SDS011;50345;51.136;16.886;2023-07-13T01:23:07;8.80;;;7.97;;
6955;SDS011;50345;51.136;16.886;2023-07-13T01:25:34;7.20;;;6.50;;
6955;SDS011;50345;51.136;16.886;2023-07-13T01:28:01;6.70;;;6.10;;
6955;SDS011;50345;51.136;16.886;2023-07-13T01:30:27;7.20;;;6.50;;
6955;SDS011;50345;51.136;16.886;2023-07-13T01:32:53;13.03;;;6.80;;
6955;SDS011;50345;51.136;16.886;2023-07-13T01:35:19;7.00;;;6.40;;
6955;SDS011;50345;51.136;16.886;2023-07-13T01:37:45;7.33;;;6.63;;
6955;SDS011;50345;51.136;16.886;2023-07-13T01:40:11;7.63;;;6.90;;
6955;SDS011;50345;51.136;16.886;2023-07-13T01:42:37;7.50;;;6.90;;
6955;SDS011;50345;51.136;16.886;2023-07-13T01:45:04;6.73;;;5.67;;
6955;SDS011;50345;51.136;16.886;2023-07-13T01:47:30;6.60;;;6.00;;
6955;SDS011;50345;51.136;16.886;2023-07-13T01:49:57;7.53;;;6.83;;
6955;SDS011;50345;51.136;16.886;2023-07-13T01:52:23;7.27;;;6.57;;
6955;SDS011;50345;51.136;16.886;2023-07-13T01:54:49;7.90;;;7.17;;
6955;SDS011;50345;51.136;16.886;2023-07-13T01:57:15;8.67;;;7.00;;
6955;SDS011;50345;51.136;16.886;2023-07-13T01:59:42;8.40;;;7.53;;
6955;SDS011;50345;51.136;16.886;2023-07-13T02:02:08;13.70;;;7.07;;
6955;SDS011;50345;51.136;16.886;2023-07-13T02:04:34;11.90;;;7.47;;
6955;SDS011;50345;51.136;16.886;2023-07-13T02:07:00;7.77;;;6.97;;
6955;SDS011;50345;51.136;16.886;2023-07-13T02:09:26;9.97;;;7.03;;
6955;SDS011;50345;51.136;16.886;2023-07-13T02:11:52;8.13;;;7.43;;
6955;SDS011;50345;51.136;16.886;2023-07-13T02:14:19;7.67;;;7.07;;
6955;SDS011;50345;51.136;16.886;2023-07-13T02:16:45;10.23;;;8.57;;
6955;SDS011;50345;51.136;16.886;2023-07-13T02:19:13;7.90;;;7.10;;
6955;SDS011;50345;51.136;16.886;2023-07-13T02:21:39;8.60;;;7.47;;
6955;SDS011;50345;51.136;16.886;2023-07-13T02:24:05;8.20;;;7.50;;
6955;SDS011;50345;51.136;16.886;2023-07-13T02:26:31;7.80;;;7.07;;
6955;SDS011;50345;51.136;16.886;2023-07-13T02:28:57;8.90;;;7.23;;
6955;SDS011;50345;51.136;16.886;2023-07-13T02:31:23;10.50;;;7.27;;
6955;SDS011;50345;51.136;16.886;2023-07-13T02:33:49;7.60;;;6.90;;
6955;SDS011;50345;51.136;16.886;2023-07-13T02:36:15;7.93;;;7.33;;
6955;SDS011;50345;51.136;16.886;2023-07-13T02:38:42;7.70;;;6.97;;
6955;SDS011;50345;51.136;16.886;2023-07-13T02:41:08;8.17;;;7.40;;
6955;SDS011;50345;51.136;16.886;2023-07-13T02:43:34;7.00;;;6.30;;
6955;SDS011;50345;51.136;16.886;2023-07-13T02:46:01;7.20;;;6.50;;
6955;SDS011;50345;51.136;16.886;2023-07-13T02:48:31;10.40;;;6.77;;
6955;SDS011;50345;51.136;16.886;2023-07-13T02:50:57;7.80;;;6.57;;
6955;SDS011;50345;51.136;16.886;2023-07-13T02:53:23;7.30;;;6.63;;
6955;SDS011;50345;51.136;16.886;2023-07-13T02:55:49;7.57;;;6.87;;
6955;SDS011;50345;51.136;16.886;2023-07-13T02:58:16;9.27;;;8.37;;
6955;SDS011;50345;51.136;16.886;2023-07-13T03:00:42;7.00;;;6.40;;
6955;SDS011;50345;51.136;16.886;2023-07-13T03:03:08;8.33;;;7.57;;
6955;SDS011;50345;51.136;16.886;2023-07-13T03:05:36;8.83;;;6.73;;
6955;SDS011;50345;51.136;16.886;2023-07-13T03:08:02;7.10;;;6.40;;
6955;SDS011;50345;51.136;16.886;2023-07-13T03:10:29;6.70;;;6.00;;
6955;SDS011;50345;51.136;16.886;2023-07-13T03:12:55;8.10;;;6.67;;
6955;SDS011;50345;51.136;16.886;2023-07-13T03:15:21;7.40;;;6.70;;
6955;SDS011;50345;51.136;16.886;2023-07-13T03:17:47;6.60;;;6.00;;
6955;SDS011;50345;51.136;16.886;2023-07-13T03:20:13;7.00;;;6.37;;
6955;SDS011;50345;51.136;16.886;2023-07-13T03:22:39;7.60;;;7.00;;
6955;SDS011;50345;51.136;16.886;2023-07-13T03:25:05;7.67;;;7.00;;
6955;SDS011;50345;51.136;16.886;2023-07-13T03:27:31;9.30;;;8.20;;
6955;SDS011;50345;51.136;16.886;2023-07-13T03:29:57;8.00;;;7.20;;
6955;SDS011;50345;51.136;16.886;2023-07-13T03:32:23;7.30;;;6.60;;
6955;SDS011;50345;51.136;16.886;2023-07-13T03:34:49;7.17;;;6.57;;
6955;SDS011;50345;51.136;16.886;2023-07-13T03:37:15;7.60;;;7.00;;
6955;SDS011;50345;51.136;16.886;2023-07-13T03:39:41;6.97;;;6.40;;
6955;SDS011;50345;51.136;16.886;2023-07-13T03:42:07;7.67;;;6.97;;
6955;SDS011;50345;51.136;16.886;2023-07-13T03:44:34;7.50;;;6.90;;
6955;SDS011;50345;51.136;16.886;2023-07-13T03:47:00;8.20;;;7.40;;
6955;SDS011;50345;51.136;16.886;2023-07-13T03:49:26;6.80;;;6.20;;
6955;SDS011;50345;51.136;16.886;2023-07-13T03:51:52;9.30;;;7.80;;
6955;SDS011;50345;51.136;16.886;2023-07-13T03:54:18;7.73;;;6.80;;
6955;SDS011;50345;51.136;16.886;2023-07-13T03:56:44;7.43;;;6.83;;
6955;SDS011;50345;51.136;16.886;2023-07-13T03:59:10;7.83;;;6.80;;
6955;SDS011;50345;51.136;16.886;2023-07-13T04:01:36;7.23;;;6.63;;
6955;SDS011;50345;51.136;16.886;2023-07-13T04:04:02;6.43;;;5.83;;
6955;SDS011;50345;51.136;16.886;2023-07-13T04:06:29;6.83;;;6.13;;
6955;SDS011;50345;51.136;16.886;2023-07-13T04:08:56;7.37;;;5.90;;
6955;SDS011;50345;51.136;16.886;2023-07-13T04:11:24;8.40;;;7.77;;
6955;SDS011;50345;51.136;16.886;2023-07-13T04:13:50;6.67;;;6.00;;
6955;SDS011;50345;51.136;16.886;2023-07-13T04:16:17;6.50;;;5.17;;
6955;SDS011;50345;51.136;16.886;2023-07-13T04:18:44;5.60;;;5.10;;
6955;SDS011;50345;51.136;16.886;2023-07-13T04:21:10;5.70;;;5.00;;
6955;SDS011;50345;51.136;16.886;2023-07-13T04:23:37;6.13;;;5.33;;
6955;SDS011;50345;51.136;16.886;2023-07-13T04:26:04;4.80;;;3.80;;
6955;SDS011;50345;51.136;16.886;2023-07-13T04:28:30;6.20;;;3.60;;
6955;SDS011;50345;51.136;16.886;2023-07-13T04:30:56;3.30;;;3.10;;
6955;SDS011;50345;51.136;16.886;2023-07-13T04:33:22;7.60;;;4.07;;
6955;SDS011;50345;51.136;16.886;2023-07-13T04:35:52;5.73;;;3.70;;
6955;SDS011;50345;51.136;16.886;2023-07-13T04:38:19;3.80;;;3.50;;
6955;SDS011;50345;51.136;16.886;2023-07-13T04:40:45;4.00;;;3.63;;
6955;SDS011;50345;51.136;16.886;2023-07-13T04:43:12;8.50;;;4.10;;
6955;SDS011;50345;51.136;16.886;2023-07-13T04:45:38;16.97;;;4.73;;
6955;SDS011;50345;51.136;16.886;2023-07-13T04:48:04;8.07;;;5.00;;
6955;SDS011;50345;51.136;16.886;2023-07-13T04:50:30;7.78;;;4.60;;
6955;SDS011;50345;51.136;16.886;2023-07-13T04:52:56;6.63;;;5.00;;
6955;SDS011;50345;51.136;16.886;2023-07-13T04:55:23;5.43;;;4.50;;
6955;SDS011;50345;51.136;16.886;2023-07-13T04:57:49;7.57;;;6.10;;
6955;SDS011;50345;51.136;16.886;2023-07-13T05:00:15;5.72;;;4.65;;
6955;SDS011;50345;51.136;16.886;2023-07-13T05:02:43;5.15;;;4.65;;
6955;SDS011;50345;51.136;16.886;2023-07-13T05:05:09;6.07;;;5.18;;
6955;SDS011;50345;51.136;16.886;2023-07-13T05:07:35;6.77;;;5.70;;
6955;SDS011;50345;51.136;16.886;2023-07-13T05:10:01;7.45;;;4.45;;
6955;SDS011;50345;51.136;16.886;2023-07-13T05:12:28;6.53;;;4.78;;
6955;SDS011;50345;51.136;16.886;2023-07-13T05:14:54;8.20;;;6.63;;
6955;SDS011;50345;51.136;16.886;2023-07-13T05:17:20;6.43;;;5.33;;
6955;SDS011;50345;51.136;16.886;2023-07-13T05:19:46;5.57;;;5.07;;
6955;SDS011;50345;51.136;16.886;2023-07-13T05:22:12;5.47;;;4.87;;
6955;SDS011;50345;51.136;16.886;2023-07-13T05:24:37;7.00;;;4.70;;
6955;SDS011;50345;51.136;16.886;2023-07-13T05:27:03;4.97;;;4.57;;
6955;SDS011;50345;51.136;16.886;2023-07-13T05:29:29;5.93;;;5.30;;
6955;SDS011;50345;51.136;16.886;2023-07-13T05:31:55;4.93;;;4.50;;
6955;SDS011;50345;51.136;16.886;2023-07-13T05:34:20;5.30;;;4.80;;
6955;SDS011;50345;51.136;16.886;2023-07-13T05:36:46;5.77;;;5.30;;
6955;SDS011;50345;51.136;16.886;2023-07-13T05:39:11;5.37;;;4.27;;
6955;SDS011;50345;51.136;16.886;2023-07-13T05:41:37;7.30;;;4.70;;
6955;SDS011;50345;51.136;16.886;2023-07-13T05:44:03;6.67;;;4.10;;
6955;SDS011;50345;51.136;16.886;2023-07-13T05:46:28;3.53;;;3.33;;
6955;SDS011;50345;51.136;16.886;2023-07-13T05:48:55;7.47;;;5.27;;
6955;SDS011;50345;51.136;16.886;2023-07-13T05:51:21;6.65;;;4.25;;
6955;SDS011;50345;51.136;16.886;2023-07-13T05:53:47;5.60;;;5.10;;
6955;SDS011;50345;51.136;16.886;2023-07-13T05:56:12;5.33;;;4.63;;
6955;SDS011;50345;51.136;16.886;2023-07-13T05:58:38;5.13;;;4.70;;
6955;SDS011;50345;51.136;16.886;2023-07-13T06:01:04;4.57;;;4.10;;
6955;SDS011;50345;51.136;16.886;2023-07-13T06:03:31;5.30;;;4.73;;
6955;SDS011;50345;51.136;16.886;2023-07-13T06:05:57;5.10;;;4.20;;
6955;SDS011;50345;51.136;16.886;2023-07-13T06:08:25;4.63;;;4.23;;
6955;SDS011;50345;51.136;16.886;2023-07-13T06:10:51;4.30;;;3.90;;
6955;SDS011;50345;51.136;16.886;2023-07-13T06:13:17;6.00;;;4.53;;
6955;SDS011;50345;51.136;16.886;2023-07-13T06:15:47;5.00;;;4.60;;
6955;SDS011;50345;51.136;16.886;2023-07-13T06:18:16;6.30;;;4.20;;
6955;SDS011;50345;51.136;16.886;2023-07-13T06:20:41;5.30;;;4.43;;
6955;SDS011;50345;51.136;16.886;2023-07-13T06:23:07;4.33;;;3.93;;
6955;SDS011;50345;51.136;16.886;2023-07-13T06:25:32;4.00;;;3.60;;
6955;SDS011;50345;51.136;16.886;2023-07-13T06:27:58;4.23;;;3.70;;
6955;SDS011;50345;51.136;16.886;2023-07-13T06:30:24;6.83;;;3.53;;
6955;SDS011;50345;51.136;16.886;2023-07-13T06:32:49;3.80;;;3.40;;
6955;SDS011;50345;51.136;16.886;2023-07-13T06:35:15;3.90;;;3.60;;
6955;SDS011;50345;51.136;16.886;2023-07-13T06:37:41;4.03;;;3.63;;
6955;SDS011;50345;51.136;16.886;2023-07-13T06:40:07;4.17;;;3.77;;
6955;SDS011;50345;51.136;16.886;2023-07-13T06:42:33;4.87;;;4.07;;
6955;SDS011;50345;51.136;16.886;2023-07-13T06:44:58;4.47;;;4.07;;
6955;SDS011;50345;51.136;16.886;2023-07-13T06:47:24;3.73;;;3.43;;
6955;SDS011;50345;51.136;16.886;2023-07-13T06:49:49;26.53;;;4.97;;
6955;SDS011;50345;51.136;16.886;2023-07-13T06:52:15;4.07;;;3.77;;
6955;SDS011;50345;51.136;16.886;2023-07-13T06:54:40;4.63;;;4.00;;
6955;SDS011;50345;51.136;16.886;2023-07-13T06:57:06;5.20;;;4.43;;
6955;SDS011;50345;51.136;16.886;2023-07-13T06:59:32;7.67;;;4.00;;
6955;SDS011;50345;51.136;16.886;2023-07-13T07:01:58;8.27;;;7.47;;
6955;SDS011;50345;51.136;16.886;2023-07-13T07:04:23;8.80;;;8.10;;
6955;SDS011;50345;51.136;16.886;2023-07-13T07:06:49;7.60;;;6.80;;
6955;SDS011;50345;51.136;16.886;2023-07-13T07:09:14;6.40;;;5.30;;
6955;SDS011;50345;51.136;16.886;2023-07-13T07:11:41;7.50;;;6.80;;
6955;SDS011;50345;51.136;16.886;2023-07-13T07:14:07;14.80;;;13.30;;
6955;SDS011;50345;51.136;16.886;2023-07-13T07:16:33;15.10;;;13.80;;
6955;SDS011;50345;51.136;16.886;2023-07-13T07:18:59;14.70;;;13.53;;
6955;SDS011;50345;51.136;16.886;2023-07-13T07:21:24;20.03;;;18.53;;
6955;SDS011;50345;51.136;16.886;2023-07-13T07:23:51;13.95;;;11.48;;
6955;SDS011;50345;51.136;16.886;2023-07-13T07:26:17;13.57;;;12.40;;
6955;SDS011;50345;51.136;16.886;2023-07-13T07:28:42;10.27;;;9.37;;
6955;SDS011;50345;51.136;16.886;2023-07-13T07:31:08;8.30;;;7.57;;
6955;SDS011;50345;51.136;16.886;2023-07-13T07:33:34;9.63;;;8.63;;
6955;SDS011;50345;51.136;16.886;2023-07-13T07:36:00;8.03;;;6.50;;
6955;SDS011;50345;51.136;16.886;2023-07-13T07:38:26;7.33;;;6.60;;
6955;SDS011;50345;51.136;16.886;2023-07-13T07:40:52;12.03;;;6.90;;
6955;SDS011;50345;51.136;16.886;2023-07-13T07:43:18;10.60;;;6.30;;
6955;SDS011;50345;51.136;16.886;2023-07-13T07:45:44;6.27;;;5.67;;
6955;SDS011;50345;51.136;16.886;2023-07-13T07:48:10;5.43;;;4.97;;
6955;SDS011;50345;51.136;16.886;2023-07-13T07:50:37;6.80;;;5.17;;
6955;SDS011;50345;51.136;16.886;2023-07-13T07:53:03;6.93;;;5.30;;
6955;SDS011;50345;51.136;16.886;2023-07-13T07:55:32;5.70;;;5.20;;
6955;SDS011;50345;51.136;16.886;2023-07-13T07:57:58;6.27;;;4.80;;
6955;SDS011;50345;51.136;16.886;2023-07-13T08:00:24;7.33;;;5.70;;
6955;SDS011;50345;51.136;16.886;2023-07-13T08:02:50;6.70;;;6.10;;
6955;SDS011;50345;51.136;16.886;2023-07-13T08:05:16;8.70;;;5.20;;
6955;SDS011;50345;51.136;16.886;2023-07-13T08:07:43;5.03;;;4.43;;
6955;SDS011;50345;51.136;16.886;2023-07-13T08:10:09;6.47;;;4.70;;
6955;SDS011;50345;51.136;16.886;2023-07-13T08:12:35;4.80;;;3.83;;
6955;SDS011;50345;51.136;16.886;2023-07-13T08:15:02;4.87;;;3.90;;
6955;SDS011;50345;51.136;16.886;2023-07-13T08:17:28;5.03;;;3.87;;
6955;SDS011;50345;51.136;16.886;2023-07-13T08:19:54;4.13;;;3.83;;
6955;SDS011;50345;51.136;16.886;2023-07-13T08:22:20;4.50;;;3.83;;
6955;SDS011;50345;51.136;16.886;2023-07-13T08:24:46;6.50;;;4.03;;
6955;SDS011;50345;51.136;16.886;2023-07-13T08:27:20;3.50;;;3.20;;
6955;SDS011;50345;51.136;16.886;2023-07-13T08:29:47;5.50;;;3.63;;
6955;SDS011;50345;51.136;16.886;2023-07-13T08:32:13;3.53;;;3.30;;
6955;SDS011;50345;51.136;16.886;2023-07-13T08:34:39;3.53;;;3.23;;
6955;SDS011;50345;51.136;16.886;2023-07-13T08:37:05;5.30;;;4.60;;
6955;SDS011;50345;51.136;16.886;2023-07-13T08:39:32;3.53;;;3.13;;
6955;SDS011;50345;51.136;16.886;2023-07-13T08:47:16;5.10;;;4.70;;
6955;SDS011;50345;51.136;16.886;2023-07-13T08:49:43;4.03;;;3.73;;
6955;SDS011;50345;51.136;16.886;2023-07-13T08:54:37;6.20;;;5.40;;
6955;SDS011;50345;51.136;16.886;2023-07-13T08:57:14;4.87;;;4.40;;
6955;SDS011;50345;51.136;16.886;2023-07-13T08:59:40;4.00;;;3.63;;
6955;SDS011;50345;51.136;16.886;2023-07-13T09:04:53;6.43;;;3.77;;
6955;SDS011;50345;51.136;16.886;2023-07-13T09:07:55;4.83;;;3.97;;
6955;SDS011;50345;51.136;16.886;2023-07-13T09:17:49;4.30;;;3.57;;
6955;SDS011;50345;51.136;16.886;2023-07-13T09:20:25;3.27;;;3.07;;
6955;SDS011;50345;51.136;16.886;2023-07-13T09:22:52;4.23;;;2.70;;
6955;SDS011;50345;51.136;16.886;2023-07-13T09:25:35;3.27;;;2.97;;
6955;SDS011;50345;51.136;16.886;2023-07-13T09:28:02;2.73;;;2.53;;
6955;SDS011;50345;51.136;16.886;2023-07-13T09:32:57;3.37;;;3.17;;
6955;SDS011;50345;51.136;16.886;2023-07-13T09:35:25;2.93;;;2.73;;
6955;SDS011;50345;51.136;16.886;2023-07-13T09:37:56;2.30;;;2.20;;
6955;SDS011;50345;51.136;16.886;2023-07-13T09:40:44;2.13;;;1.90;;
6955;SDS011;50345;51.136;16.886;2023-07-13T09:43:14;2.43;;;2.13;;
6955;SDS011;50345;51.136;16.886;2023-07-13T09:45:40;2.53;;;2.10;;
6955;SDS011;50345;51.136;16.886;2023-07-13T09:48:11;3.17;;;2.40;;
6955;SDS011;50345;51.136;16.886;2023-07-13T09:50:38;2.10;;;1.77;;
6955;SDS011;50345;51.136;16.886;2023-07-13T09:53:04;3.00;;;2.80;;
6955;SDS011;50345;51.136;16.886;2023-07-13T09:55:37;2.47;;;2.27;;
6955;SDS011;50345;51.136;16.886;2023-07-13T09:58:04;4.87;;;3.23;;
6955;SDS011;50345;51.136;16.886;2023-07-13T10:00:31;2.93;;;2.60;;
6955;SDS011;50345;51.136;16.886;2023-07-13T10:05:42;4.03;;;3.40;;
6955;SDS011;50345;51.136;16.886;2023-07-13T10:08:15;2.77;;;2.53;;
6955;SDS011;50345;51.136;16.886;2023-07-13T10:10:41;2.90;;;2.37;;
6955;SDS011;50345;51.136;16.886;2023-07-13T10:13:20;6.30;;;2.50;;
6955;SDS011;50345;51.136;16.886;2023-07-13T10:15:49;2.50;;;2.13;;
6955;SDS011;50345;51.136;16.886;2023-07-13T10:18:15;2.33;;;2.13;;
6955;SDS011;50345;51.136;16.886;2023-07-13T10:20:42;2.50;;;2.30;;
6955;SDS011;50345;51.136;16.886;2023-07-13T10:23:11;2.77;;;1.93;;
6955;SDS011;50345;51.136;16.886;2023-07-13T10:25:39;2.60;;;2.40;;
6955;SDS011;50345;51.136;16.886;2023-07-13T10:30:51;3.67;;;2.50;;
6955;SDS011;50345;51.136;16.886;2023-07-13T10:33:18;2.90;;;2.70;;
6955;SDS011;50345;51.136;16.886;2023-07-13T10:35:45;3.03;;;2.57;;
6955;SDS011;50345;51.136;16.886;2023-07-13T10:38:14;2.53;;;2.33;;
6955;SDS011;50345;51.136;16.886;2023-07-13T10:40:42;3.30;;;2.67;;
6955;SDS011;50345;51.136;16.886;2023-07-13T10:43:13;3.70;;;3.40;;
6955;SDS011;50345;51.136;16.886;2023-07-13T10:45:41;3.33;;;2.60;;
6955;SDS011;50345;51.136;16.886;2023-07-13T10:48:08;2.60;;;2.40;;
6955;SDS011;50345;51.136;16.886;2023-07-13T10:50:37;2.63;;;2.20;;
6955;SDS011;50345;51.136;16.886;2023-07-13T10:58:19;2.50;;;2.30;;
6955;SDS011;50345;51.136;16.886;2023-07-13T11:00:46;2.47;;;2.27;;
6955;SDS011;50345;51.136;16.886;2023-07-13T11:03:14;4.27;;;2.57;;
6955;SDS011;50345;51.136;16.886;2023-07-13T11:05:40;3.60;;;2.17;;
6955;SDS011;50345;51.136;16.886;2023-07-13T11:08:16;3.77;;;2.67;;
6955;SDS011;50345;51.136;16.886;2023-07-13T11:15:59;3.07;;;2.10;;
6955;SDS011;50345;51.136;16.886;2023-07-13T11:18:25;2.50;;;2.30;;
6955;SDS011;50345;51.136;16.886;2023-07-13T11:20:51;3.13;;;2.63;;
6955;SDS011;50345;51.136;16.886;2023-07-13T11:23:19;2.87;;;2.10;;
6955;SDS011;50345;51.136;16.886;2023-07-13T11:25:45;2.20;;;2.10;;
6955;SDS011;50345;51.136;16.886;2023-07-13T11:33:18;5.90;;;2.17;;
6955;SDS011;50345;51.136;16.886;2023-07-13T11:35:58;4.03;;;2.00;;
6955;SDS011;50345;51.136;16.886;2023-07-13T11:38:28;4.30;;;2.27;;
6955;SDS011;50345;51.136;16.886;2023-07-13T11:40:56;4.80;;;1.97;;
6955;SDS011;50345;51.136;16.886;2023-07-13T11:43:23;6.47;;;2.67;;
6955;SDS011;50345;51.136;16.886;2023-07-13T11:45:50;5.60;;;2.30;;
6955;SDS011;50345;51.136;16.886;2023-07-13T11:48:18;1.90;;;1.80;;
6955;SDS011;50345;51.136;16.886;2023-07-13T11:50:49;2.83;;;2.13;;
6955;SDS011;50345;51.136;16.886;2023-07-13T11:53:16;2.43;;;2.23;;
6955;SDS011;50345;51.136;16.886;2023-07-13T11:55:42;4.57;;;2.10;;
6955;SDS011;50345;51.136;16.886;2023-07-13T11:58:08;3.70;;;2.30;;
6955;SDS011;50345;51.136;16.886;2023-07-13T12:00:35;5.40;;;2.60;;
6955;SDS011;50345;51.136;16.886;2023-07-13T12:03:03;4.27;;;2.90;;
6955;SDS011;50345;51.136;16.886;2023-07-13T12:05:30;2.17;;;2.03;;
6955;SDS011;50345;51.136;16.886;2023-07-13T12:07:57;4.03;;;2.60;;
6955;SDS011;50345;51.136;16.886;2023-07-13T12:13:02;2.97;;;2.03;;
6955;SDS011;50345;51.136;16.886;2023-07-13T12:15:37;2.50;;;1.70;;
6955;SDS011;50345;51.136;16.886;2023-07-13T12:18:09;3.20;;;2.00;;
6955;SDS011;50345;51.136;16.886;2023-07-13T12:20:37;2.80;;;1.53;;
6955;SDS011;50345;51.136;16.886;2023-07-13T12:25:49;2.53;;;1.80;;
6955;SDS011;50345;51.136;16.886;2023-07-13T12:28:19;2.50;;;1.80;;
6955;SDS011;50345;51.136;16.886;2023-07-13T12:30:47;5.73;;;1.77;;
6955;SDS011;50345;51.136;16.886;2023-07-13T12:33:13;2.80;;;2.07;;
6955;SDS011;50345;51.136;16.886;2023-07-13T12:35:40;2.40;;;1.60;;
6955;SDS011;50345;51.136;16.886;2023-07-13T12:38:09;1.53;;;1.43;;
6955;SDS011;50345;51.136;16.886;2023-07-13T12:40:36;2.40;;;1.30;;
6955;SDS011;50345;51.136;16.886;2023-07-13T12:43:02;2.20;;;1.77;;
6955;SDS011;50345;51.136;16.886;2023-07-13T12:45:32;2.50;;;1.43;;
6955;SDS011;50345;51.136;16.886;2023-07-13T12:47:59;2.00;;;1.60;;
6955;SDS011;50345;51.136;16.886;2023-07-13T12:50:31;2.00;;;1.80;;
6955;SDS011;50345;51.136;16.886;2023-07-13T12:53:02;2.77;;;1.73;;
6955;SDS011;50345;51.136;16.886;2023-07-13T12:55:28;1.70;;;1.60;;
6955;SDS011;50345;51.136;16.886;2023-07-13T12:57:58;1.87;;;1.77;;
6955;SDS011;50345;51.136;16.886;2023-07-13T13:02:51;2.00;;;1.30;;
6955;SDS011;50345;51.136;16.886;2023-07-13T13:05:18;1.60;;;1.30;;
6955;SDS011;50345;51.136;16.886;2023-07-13T13:07:48;3.00;;;2.80;;
6955;SDS011;50345;51.136;16.886;2023-07-13T13:10:14;1.87;;;1.77;;
6955;SDS011;50345;51.136;16.886;2023-07-13T13:12:40;2.20;;;1.67;;
6955;SDS011;50345;51.136;16.886;2023-07-13T13:15:07;2.20;;;1.93;;
6955;SDS011;50345;51.136;16.886;2023-07-13T13:17:33;3.13;;;1.50;;
6955;SDS011;50345;51.136;16.886;2023-07-13T13:20:00;2.70;;;2.03;;
6955;SDS011;50345;51.136;16.886;2023-07-13T13:22:26;3.37;;;1.80;;
6955;SDS011;50345;51.136;16.886;2023-07-13T13:24:52;3.73;;;2.00;;
6955;SDS011;50345;51.136;16.886;2023-07-13T13:27:22;3.30;;;1.90;;
6955;SDS011;50345;51.136;16.886;2023-07-13T13:29:49;2.33;;;1.70;;
6955;SDS011;50345;51.136;16.886;2023-07-13T13:32:19;2.27;;;1.93;;
6955;SDS011;50345;51.136;16.886;2023-07-13T13:34:45;1.83;;;1.40;;
6955;SDS011;50345;51.136;16.886;2023-07-13T13:37:19;3.23;;;1.53;;
6955;SDS011;50345;51.136;16.886;2023-07-13T13:39:46;1.80;;;1.70;;
6955;SDS011;50345;51.136;16.886;2023-07-13T13:42:13;2.37;;;2.17;;
6955;SDS011;50345;51.136;16.886;2023-07-13T13:44:41;2.67;;;1.40;;
6955;SDS011;50345;51.136;16.886;2023-07-13T13:47:07;4.90;;;1.97;;
6955;SDS011;50345;51.136;16.886;2023-07-13T13:49:52;3.10;;;1.47;;
6955;SDS011;50345;51.136;16.886;2023-07-13T13:52:18;1.80;;;1.70;;
6955;SDS011;50345;51.136;16.886;2023-07-13T13:54:44;3.53;;;2.00;;
6955;SDS011;50345;51.136;16.886;2023-07-13T13:57:10;1.60;;;1.50;;
6955;SDS011;50345;51.136;16.886;2023-07-13T13:59:37;2.30;;;1.93;;
6955;SDS011;50345;51.136;16.886;2023-07-13T14:02:11;3.03;;;1.97;;
6955;SDS011;50345;51.136;16.886;2023-07-13T14:04:42;1.90;;;1.40;;
6955;SDS011;50345;51.136;16.886;2023-07-13T14:07:10;1.73;;;1.60;;
6955;SDS011;50345;51.136;16.886;2023-07-13T14:09:36;1.90;;;1.67;;
6955;SDS011;50345;51.136;16.886;2023-07-13T14:12:02;1.70;;;1.60;;
6955;SDS011;50345;51.136;16.886;2023-07-13T14:14:30;1.67;;;1.57;;
6955;SDS011;50345;51.136;16.886;2023-07-13T14:16:56;2.10;;;1.40;;
6955;SDS011;50345;51.136;16.886;2023-07-13T14:19:22;2.00;;;1.90;;
6955;SDS011;50345;51.136;16.886;2023-07-13T14:21:48;1.47;;;1.37;;
6955;SDS011;50345;51.136;16.886;2023-07-13T14:24:14;2.13;;;1.40;;
6955;SDS011;50345;51.136;16.886;2023-07-13T14:26:40;2.10;;;1.90;;
6955;SDS011;50345;51.136;16.886;2023-07-13T14:29:17;3.20;;;1.70;;
6955;SDS011;50345;51.136;16.886;2023-07-13T14:31:44;4.73;;;1.73;;
6955;SDS011;50345;51.136;16.886;2023-07-13T14:34:10;1.90;;;1.40;;
6955;SDS011;50345;51.136;16.886;2023-07-13T14:36:41;1.47;;;1.37;;
6955;SDS011;50345;51.136;16.886;2023-07-13T14:39:16;2.13;;;1.47;;
6955;SDS011;50345;51.136;16.886;2023-07-13T14:41:43;2.40;;;1.40;;
6955;SDS011;50345;51.136;16.886;2023-07-13T14:44:11;5.33;;;1.33;;
6955;SDS011;50345;51.136;16.886;2023-07-13T14:46:37;3.90;;;1.33;;
6955;SDS011;50345;51.136;16.886;2023-07-13T14:49:04;2.20;;;1.40;;
6955;SDS011;50345;51.136;16.886;2023-07-13T14:51:30;4.23;;;1.80;;
6955;SDS011;50345;51.136;16.886;2023-07-13T14:53:58;1.60;;;1.50;;
6955;SDS011;50345;51.136;16.886;2023-07-13T14:56:24;2.23;;;1.50;;
6955;SDS011;50345;51.136;16.886;2023-07-13T14:58:50;2.10;;;1.53;;
6955;SDS011;50345;51.136;16.886;2023-07-13T15:01:18;1.97;;;1.63;;
6955;SDS011;50345;51.136;16.886;2023-07-13T15:03:46;2.10;;;1.90;;
6955;SDS011;50345;51.136;16.886;2023-07-13T15:06:13;2.10;;;1.90;;
6955;SDS011;50345;51.136;16.886;2023-07-13T15:08:39;2.20;;;1.90;;
6955;SDS011;50345;51.136;16.886;2023-07-13T15:11:09;3.37;;;1.90;;
6955;SDS011;50345;51.136;16.886;2023-07-13T15:13:38;5.03;;;2.23;;
6955;SDS011;50345;51.136;16.886;2023-07-13T15:16:09;3.10;;;2.23;;
6955;SDS011;50345;51.136;16.886;2023-07-13T15:18:39;2.93;;;2.20;;
6955;SDS011;50345;51.136;16.886;2023-07-13T15:21:08;4.87;;;2.20;;
6955;SDS011;50345;51.136;16.886;2023-07-13T15:23:35;3.20;;;2.07;;
6955;SDS011;50345;51.136;16.886;2023-07-13T15:26:01;2.97;;;2.30;;
6955;SDS011;50345;51.136;16.886;2023-07-13T15:28:28;2.03;;;1.90;;
6955;SDS011;50345;51.136;16.886;2023-07-13T15:30:54;3.60;;;2.10;;
6955;SDS011;50345;51.136;16.886;2023-07-13T15:33:27;8.53;;;2.37;;
6955;SDS011;50345;51.136;16.886;2023-07-13T15:35:53;6.53;;;1.70;;
6955;SDS011;50345;51.136;16.886;2023-07-13T15:38:21;4.30;;;1.93;;
6955;SDS011;50345;51.136;16.886;2023-07-13T15:40:48;2.30;;;2.10;;